Time;durP1;ratioP1;P1;durP2;ratioP2;P2;SDS_P1;SDS_P2;PMS_P1;PMS_P2;Temp;Humidity;BMP_temperature;BMP_pressure;BME280_temperature;BME280_humidity;BME280_pressure;Samples;Min_cycle;Max_cycle;Signal;HPM_P1;HPM_P2
2021/01/11 00:00:13;;;;;;;16.83;10.17;;;1.80;99.90;;;;;;5019463;28;20242;-64
2021/01/11 00:02:39;;;;;;;17.63;11.40;;;1.70;99.90;;;;;;5014493;28;20266;-66
2021/01/11 00:05:06;;;;;;;20.90;11.17;;;1.70;99.90;;;;;;5028357;28;20175;-67
2021/01/11 00:07:32;;;;;;;20.23;10.70;;;1.60;99.90;;;;;;5033158;28;20179;-66
2021/01/11 00:09:58;;;;;;;15.03;9.50;;;1.50;99.90;;;;;;5003020;28;20184;-64
2021/01/11 00:12:23;;;;;;;17.07;12.07;;;1.30;99.90;;;;;;5014224;28;20184;-66
2021/01/11 00:14:49;;;;;;;18.03;10.67;;;1.20;99.90;;;;;;5025677;28;20175;-67
2021/01/11 00:17:15;;;;;;;16.90;12.07;;;1.10;99.90;;;;;;5033841;28;20739;-66
2021/01/11 00:19:40;;;;;;;17.50;11.50;;;1.00;99.90;;;;;;5023732;28;20188;-67
2021/01/11 00:22:06;;;;;;;14.53;10.17;;;1.00;99.90;;;;;;5014161;28;20207;-66
2021/01/11 00:24:32;;;;;;;16.03;10.07;;;0.90;99.90;;;;;;5021904;28;20192;-65
2021/01/11 00:26:58;;;;;;;17.10;11.07;;;0.90;99.90;;;;;;5033918;28;20170;-66
2021/01/11 00:29:24;;;;;;;22.33;11.33;;;0.90;99.90;;;;;;5027023;28;20176;-65
2021/01/11 00:31:50;;;;;;;15.80;11.03;;;1.00;99.90;;;;;;5013735;28;20176;-64
2021/01/11 00:34:16;;;;;;;16.17;10.83;;;1.00;99.90;;;;;;5018602;28;20657;-64
2021/01/11 00:36:50;;;;;;;19.23;10.73;;;1.00;99.90;;;;;;5033564;28;20182;-64
2021/01/11 00:39:16;;;;;;;14.63;9.70;;;1.00;99.90;;;;;;5029128;28;20176;-66
2021/01/11 00:41:42;;;;;;;17.37;11.93;;;1.00;99.90;;;;;;5013502;28;20258;-66
2021/01/11 00:44:08;;;;;;;17.33;11.20;;;1.00;99.90;;;;;;5016153;28;20204;-66
2021/01/11 00:46:33;;;;;;;15.43;9.90;;;1.00;99.90;;;;;;5033676;28;20206;-66
2021/01/11 00:48:59;;;;;;;15.00;9.73;;;0.90;99.90;;;;;;5032412;28;20175;-66
2021/01/11 00:51:25;;;;;;;16.20;10.20;;;0.90;99.90;;;;;;5013578;28;20306;-66
2021/01/11 00:53:51;;;;;;;17.43;9.87;;;1.00;99.90;;;;;;5013358;28;20282;-66
2021/01/11 00:56:19;;;;;;;17.43;10.00;;;1.00;99.90;;;;;;5032627;28;20635;-66
2021/01/11 00:58:46;;;;;;;15.60;9.60;;;1.00;99.90;;;;;;5032886;28;20215;-64
2021/01/11 01:01:15;;;;;;;14.43;9.27;;;1.00;99.90;;;;;;5015195;28;20303;-64
2021/01/11 01:03:42;;;;;;;19.23;10.13;;;1.00;99.90;;;;;;5013103;28;20285;-64
2021/01/11 01:06:11;;;;;;;14.93;9.97;;;1.00;99.90;;;;;;5026088;28;20183;-64
2021/01/11 01:08:38;;;;;;;14.60;9.20;;;1.00;99.90;;;;;;5032672;28;20175;-64
2021/01/11 01:11:04;;;;;;;18.30;9.60;;;1.00;99.90;;;;;;5017288;28;20223;-64
2021/01/11 01:13:29;;;;;;;16.43;9.87;;;1.00;99.90;;;;;;5013086;28;20200;-65
2021/01/11 01:15:55;;;;;;;13.33;9.80;;;1.10;99.90;;;;;;5026975;28;20198;-63
2021/01/11 01:18:21;;;;;;;15.47;9.43;;;1.20;99.90;;;;;;5032636;28;20179;-65
2021/01/11 01:20:47;;;;;;;14.20;9.10;;;1.20;99.90;;;;;;5020333;28;20262;-64
2021/01/11 01:23:12;;;;;;;19.50;10.50;;;1.30;99.90;;;;;;4995485;28;20402;-64
2021/01/11 01:25:38;;;;;;;14.47;10.30;;;1.40;99.90;;;;;;5023367;28;20293;-63
2021/01/11 01:28:04;;;;;;;14.70;10.10;;;1.40;99.90;;;;;;5031125;28;20175;-64
2021/01/11 01:30:29;;;;;;;17.10;9.77;;;1.40;99.90;;;;;;5023468;28;20179;-64
2021/01/11 01:32:56;;;;;;;15.07;9.60;;;1.40;99.90;;;;;;5012908;28;20207;-66
2021/01/11 01:35:21;;;;;;;16.33;10.27;;;1.40;99.90;;;;;;5019815;28;20192;-66
2021/01/11 01:37:47;;;;;;;16.17;9.57;;;1.40;99.90;;;;;;5032219;28;20638;-64
2021/01/11 01:40:13;;;;;;;14.83;10.23;;;1.40;99.90;;;;;;5030839;28;20237;-65
2021/01/11 01:42:38;;;;;;;17.97;9.60;;;1.30;99.90;;;;;;5032282;28;20563;-65
2021/01/11 01:45:05;;;;;;;15.53;9.57;;;1.30;99.90;;;;;;5028482;28;20199;-64
2021/01/11 01:47:32;;;;;;;14.70;9.30;;;1.30;99.90;;;;;;5011206;28;20168;-65
2021/01/11 01:49:58;;;;;;;14.57;8.33;;;1.20;99.90;;;;;;5014803;28;20215;-65
2021/01/11 01:52:23;;;;;;;15.13;9.33;;;1.10;99.90;;;;;;5032273;28;20206;-66
2021/01/11 01:54:50;;;;;;;12.10;8.87;;;1.00;99.90;;;;;;5029788;28;20257;-67
2021/01/11 01:57:15;;;;;;;15.93;9.57;;;1.00;99.90;;;;;;5012323;28;20195;-67
2021/01/11 01:59:47;;;;;;;12.13;8.83;;;0.80;99.90;;;;;;5012150;28;20541;-66
2021/01/11 02:02:14;;;;;;;15.80;8.53;;;0.70;99.90;;;;;;5031939;28;20214;-67
2021/01/11 02:04:43;;;;;;;11.43;8.10;;;0.60;99.90;;;;;;5017021;28;20207;-66
2021/01/11 02:07:21;;;;;;;17.13;9.33;;;0.60;99.90;;;;;;5012220;28;20204;-66
2021/01/11 02:10:06;;;;;;;12.27;8.80;;;0.60;99.90;;;;;;5013135;28;20812;-66
2021/01/11 02:12:52;;;;;;;14.87;8.90;;;0.60;99.90;;;;;;5011741;28;20261;-66
2021/01/11 02:15:26;;;;;;;14.27;9.40;;;0.60;99.90;;;;;;5030066;28;20228;-66
2021/01/11 02:18:09;;;;;;;12.53;8.20;;;0.60;99.90;;;;;;5031461;28;20211;-66
2021/01/11 02:20:53;;;;;;;13.70;9.27;;;0.60;99.90;;;;;;5012216;28;20204;-66
2021/01/11 02:23:55;;;;;;;12.50;8.03;;;0.60;99.90;;;;;;5012191;28;20561;-66
2021/01/11 02:26:46;;;;;;;13.40;7.83;;;0.60;99.90;;;;;;5031826;28;20607;-66
2021/01/11 02:29:27;;;;;;;9.83;7.13;;;0.70;99.90;;;;;;5024335;28;20202;-66
2021/01/11 02:31:56;;;;;;;12.20;7.50;;;0.70;99.90;;;;;;5011923;28;20180;-64
2021/01/11 02:34:24;;;;;;;11.30;7.40;;;0.60;99.90;;;;;;5019664;28;20210;-66
2021/01/11 02:36:51;;;;;;;11.30;7.57;;;0.60;99.90;;;;;;5031757;28;20179;-66
2021/01/11 02:39:17;;;;;;;11.03;7.53;;;0.60;99.90;;;;;;5024665;28;20176;-67
2021/01/11 02:41:42;;;;;;;11.20;8.00;;;0.50;99.90;;;;;;5011557;28;20270;-67
2021/01/11 02:44:08;;;;;;;6.87;5.93;;;0.50;99.90;;;;;;5016628;28;20593;-66
2021/01/11 02:46:34;;;;;;;9.70;6.50;;;0.50;99.90;;;;;;5031440;28;20175;-66
2021/01/11 02:49:09;;;;;;;12.30;6.73;;;0.50;99.90;;;;;;5027668;28;20176;-66
2021/01/11 02:52:05;;;;;;;9.90;6.57;;;0.60;99.90;;;;;;5011723;28;20263;-67
2021/01/11 02:54:39;;;;;;;12.47;7.83;;;0.60;99.90;;;;;;5006921;28;20207;-67
2021/01/11 02:57:19;;;;;;;9.63;6.03;;;0.70;99.90;;;;;;5031438;28;20186;-66
2021/01/11 02:59:53;;;;;;;5.97;5.37;;;0.80;99.90;;;;;;5022788;28;20237;-64
2021/01/11 03:02:22;;;;;;;7.67;5.87;;;0.80;99.90;;;;;;5011573;28;20204;-64
2021/01/11 03:04:49;;;;;;;8.97;5.87;;;0.90;99.90;;;;;;5018639;28;20179;-65
2021/01/11 03:07:14;;;;;;;6.43;5.53;;;0.90;99.90;;;;;;5031110;28;20640;-64
2021/01/11 03:09:41;;;;;;;6.87;5.03;;;1.00;99.90;;;;;;5024289;28;20218;-63
2021/01/11 03:12:09;;;;;;;8.77;6.50;;;1.10;99.90;;;;;;5011539;28;20180;-64
2021/01/11 03:14:36;;;;;;;11.43;5.43;;;1.10;99.90;;;;;;5016581;28;20660;-64
2021/01/11 03:17:02;;;;;;;6.03;5.23;;;1.10;99.90;;;;;;5031036;28;20180;-66
2021/01/11 03:19:27;;;;;;;7.03;6.00;;;1.10;99.90;;;;;;5029446;28;20176;-66
2021/01/11 03:21:53;;;;;;;9.53;6.43;;;1.10;99.90;;;;;;5031077;28;20757;-64
2021/01/11 03:24:20;;;;;;;9.03;5.43;;;1.20;99.90;;;;;;5031660;28;20703;-64
2021/01/11 03:26:47;;;;;;;7.27;6.07;;;1.20;99.90;;;;;;5015088;28;20179;-66
2021/01/11 03:29:13;;;;;;;9.53;6.27;;;1.20;99.90;;;;;;5015644;28;20191;-67
2021/01/11 03:31:40;;;;;;;8.67;5.50;;;1.30;99.90;;;;;;5034730;28;20190;-66
2021/01/11 03:34:09;;;;;;;8.13;5.70;;;1.30;99.90;;;;;;5034825;28;20211;-64
2021/01/11 03:36:36;;;;;;;8.67;6.10;;;1.30;99.90;;;;;;5033958;28;20245;-64
2021/01/11 03:39:04;;;;;;;7.93;6.33;;;1.20;99.90;;;;;;5034507;28;20179;-66
2021/01/11 03:41:32;;;;;;;6.97;5.03;;;1.20;99.90;;;;;;5020347;28;20243;-71
2021/01/11 03:43:57;;;;;;;9.67;5.77;;;1.20;99.90;;;;;;5001322;28;20200;-69
2021/01/11 03:46:23;;;;;;;9.80;5.30;;;1.10;99.90;;;;;;5017978;28;20637;-71
2021/01/11 03:48:48;;;;;;;10.33;4.87;;;1.10;99.90;;;;;;5038709;28;20172;-69
2021/01/11 03:51:14;;;;;;;6.80;5.20;;;1.00;99.90;;;;;;5023336;28;20184;-69
2021/01/11 03:53:44;;;;;;;6.70;4.70;;;0.90;99.90;;;;;;5018604;28;20223;-69
2021/01/11 03:56:10;;;;;;;10.17;5.63;;;0.80;99.90;;;;;;5032685;28;20660;-73
2021/01/11 03:58:35;;;;;;;7.10;5.40;;;0.70;99.90;;;;;;5020397;28;20242;-70
2021/01/11 04:01:03;;;;;;;6.70;5.47;;;0.60;99.90;;;;;;5004857;28;20205;-69
2021/01/11 04:03:28;;;;;;;8.33;5.03;;;0.60;99.90;;;;;;4993953;28;20195;-68
2021/01/11 04:05:55;;;;;;;7.03;5.37;;;0.60;99.90;;;;;;5037180;28;20303;-67
2021/01/11 04:08:21;;;;;;;7.33;5.47;;;0.50;99.90;;;;;;5033159;28;20376;-69
2021/01/11 04:10:47;;;;;;;8.97;5.97;;;0.50;99.90;;;;;;5018440;28;20263;-68
2021/01/11 04:13:13;;;;;;;9.20;6.60;;;0.50;99.90;;;;;;5021337;28;20657;-71
2021/01/11 04:15:38;;;;;;;10.77;6.33;;;0.50;99.90;;;;;;5038423;28;20198;-69
2021/01/11 04:18:04;;;;;;;8.17;6.13;;;0.50;99.90;;;;;;5036368;28;20184;-69
2021/01/11 04:20:30;;;;;;;7.50;5.50;;;0.40;99.90;;;;;;5018391;28;20180;-67
2021/01/11 04:22:56;;;;;;;9.40;6.03;;;0.40;99.90;;;;;;5019132;28;20196;-66
2021/01/11 04:25:23;;;;;;;21.50;12.13;;;0.40;99.90;;;;;;5037560;28;20233;-69
2021/01/11 04:27:49;;;;;;;65.93;28.40;;;0.40;99.90;;;;;;5036370;28;20229;-72
2021/01/11 04:30:15;;;;;;;57.93;26.80;;;0.30;99.90;;;;;;5019585;28;20180;-70
2021/01/11 04:32:41;;;;;;;47.30;20.00;;;0.30;99.90;;;;;;5018128;28;20200;-70
2021/01/11 04:35:08;;;;;;;15.90;8.60;;;0.40;99.90;;;;;;5016015;28;20603;-68
2021/01/11 04:37:35;;;;;;;20.33;8.80;;;0.30;99.90;;;;;;5037722;28;20171;-69
2021/01/11 04:40:00;;;;;;;11.53;7.50;;;0.40;99.90;;;;;;5022474;28;20184;-68
2021/01/11 04:42:33;;;;;;;11.70;7.77;;;0.50;99.90;;;;;;4999445;28;20211;-70
2021/01/11 04:45:00;;;;;;;13.53;8.13;;;0.50;99.90;;;;;;5029113;28;20175;-64
2021/01/11 04:47:26;;;;;;;13.63;9.50;;;0.50;99.90;;;;;;5033301;28;20633;-65
2021/01/11 04:49:53;;;;;;;20.80;13.10;;;0.60;99.90;;;;;;5020285;28;20266;-64
2021/01/11 04:52:19;;;;;;;16.73;9.73;;;0.60;99.90;;;;;;5013593;28;20315;-63
2021/01/11 04:57:15;;;;;;;15.13;8.40;;;0.70;99.90;;;;;;5051449;28;20278;-64
2021/01/11 04:59:49;;;;;;;12.17;7.93;;;0.70;99.90;;;;;;5063536;28;20186;-64
2021/01/11 05:02:21;;;;;;;14.80;8.53;;;0.80;99.90;;;;;;5073125;28;20677;-64
2021/01/11 05:04:47;;;;;;;12.53;7.70;;;0.80;99.90;;;;;;5071957;28;20174;-64
2021/01/11 05:07:16;;;;;;;11.93;8.07;;;0.80;99.90;;;;;;5072887;28;20176;-64
2021/01/11 05:09:45;;;;;;;10.77;7.70;;;0.80;99.90;;;;;;5072554;28;20184;-64
2021/01/11 05:12:13;;;;;;;10.90;7.37;;;0.80;99.90;;;;;;5072913;28;20173;-63
2021/01/11 05:14:39;;;;;;;11.57;6.63;;;0.90;99.90;;;;;;5072765;28;20658;-63
2021/01/11 05:17:05;;;;;;;10.37;6.80;;;0.90;99.90;;;;;;5072583;28;20572;-63
2021/01/11 05:19:31;;;;;;;12.83;6.30;;;0.90;99.90;;;;;;5072335;28;20174;-63
2021/01/11 05:21:56;;;;;;;7.90;6.10;;;0.80;99.90;;;;;;5072551;28;20284;-64
2021/01/11 05:24:30;;;;;;;8.50;6.07;;;0.90;99.90;;;;;;5072626;28;20209;-64
2021/01/11 05:26:57;;;;;;;7.77;5.93;;;0.90;99.90;;;;;;5072290;28;20694;-64
2021/01/11 05:29:23;;;;;;;7.67;5.73;;;0.90;99.90;;;;;;5072251;28;20535;-63
2021/01/11 05:32:04;;;;;;;7.27;6.00;;;0.90;99.90;;;;;;5072449;28;20265;-63
2021/01/11 05:34:48;;;;;;;8.63;6.00;;;0.90;99.90;;;;;;5072438;28;20654;-64
2021/01/11 05:37:34;;;;;;;7.43;6.00;;;0.80;99.90;;;;;;5072168;28;20189;-64
2021/01/11 05:40:14;;;;;;;6.93;4.87;;;0.80;99.90;;;;;;5072070;28;20186;-63
2021/01/11 05:42:42;;;;;;;8.73;6.17;;;0.90;99.90;;;;;;5072409;28;20198;-64
2021/01/11 05:45:12;;;;;;;12.73;7.03;;;0.90;99.90;;;;;;5071765;28;20193;-63
2021/01/11 05:48:08;;;;;;;11.40;7.80;;;1.00;99.90;;;;;;5070541;28;20178;-64
2021/01/11 05:50:41;;;;;;;14.83;8.67;;;1.00;99.90;;;;;;5071903;28;20716;-63
2021/01/11 05:53:23;;;;;;;12.53;7.80;;;1.00;99.90;;;;;;5072339;28;20170;-64
2021/01/11 05:55:51;;;;;;;18.80;9.73;;;1.10;99.90;;;;;;5071613;28;20209;-64
2021/01/11 05:58:21;;;;;;;16.57;8.13;;;1.00;99.90;;;;;;5072247;28;20317;-64
2021/01/11 06:00:48;;;;;;;14.60;8.43;;;1.10;99.90;;;;;;5071241;28;20263;-63
2021/01/11 06:03:14;;;;;;;12.90;8.80;;;1.20;99.90;;;;;;5072621;28;20178;-64
2021/01/11 06:05:41;;;;;;;10.57;8.10;;;1.30;99.90;;;;;;5071467;28;20217;-64
2021/01/11 06:08:11;;;;;;;12.03;8.73;;;1.30;99.90;;;;;;5071351;28;20174;-65
2021/01/11 06:10:37;;;;;;;15.97;8.33;;;1.30;99.90;;;;;;5071826;28;20173;-64
2021/01/11 06:13:10;;;;;;;13.57;8.10;;;1.30;99.90;;;;;;5071684;28;20179;-64
2021/01/11 06:15:37;;;;;;;12.17;8.90;;;1.30;99.90;;;;;;5071777;28;20186;-64
2021/01/11 06:18:11;;;;;;;14.73;8.47;;;1.30;99.90;;;;;;5071177;28;20177;-64
2021/01/11 06:20:42;;;;;;;12.40;8.30;;;1.30;99.90;;;;;;5071587;28;20253;-65
2021/01/11 06:23:08;;;;;;;12.57;6.87;;;1.30;99.90;;;;;;5071522;28;20578;-64
2021/01/11 06:25:35;;;;;;;9.87;6.87;;;1.20;99.90;;;;;;5071840;28;20186;-64
2021/01/11 06:28:07;;;;;;;13.17;7.93;;;1.10;99.90;;;;;;5071056;28;20166;-64
2021/01/11 06:30:37;;;;;;;11.63;7.87;;;1.00;99.90;;;;;;5071644;28;20212;-64
2021/01/11 06:33:16;;;;;;;9.00;6.97;;;1.00;99.90;;;;;;5071323;28;20193;-64
2021/01/11 06:35:51;;;;;;;10.97;7.97;;;1.00;99.90;;;;;;5071418;28;20612;-64
2021/01/11 06:38:22;;;;;;;11.27;8.80;;;0.90;99.90;;;;;;5071230;28;20511;-64
2021/01/11 06:40:47;;;;;;;14.50;9.20;;;1.00;99.90;;;;;;5071425;28;20198;-64
2021/01/11 06:43:15;;;;;;;17.37;10.43;;;1.00;99.90;;;;;;5071255;28;20173;-64
2021/01/11 06:45:42;;;;;;;14.57;9.70;;;0.90;99.90;;;;;;5071290;28;20181;-64
2021/01/11 06:48:12;;;;;;;21.27;10.93;;;0.90;99.90;;;;;;5070885;28;20173;-64
2021/01/11 06:50:38;;;;;;;14.23;9.97;;;0.90;99.90;;;;;;5031434;28;20175;-63
2021/01/11 06:53:04;;;;;;;16.03;9.80;;;0.90;99.90;;;;;;5031560;28;20167;-64
2021/01/11 06:55:31;;;;;;;16.37;9.93;;;1.00;99.90;;;;;;5062020;28;20206;-64
2021/01/11 06:58:02;;;;;;;14.70;9.97;;;1.00;99.90;;;;;;5053529;28;20171;-64
2021/01/11 07:00:31;;;;;;;15.90;10.30;;;1.00;99.90;;;;;;5073361;28;20206;-63
2021/01/11 07:02:57;;;;;;;22.57;11.07;;;0.90;99.90;;;;;;5075244;28;20178;-63
2021/01/11 07:05:37;;;;;;;16.03;11.07;;;0.90;99.90;;;;;;5074942;28;20201;-64
2021/01/11 07:08:05;;;;;;;18.33;10.70;;;1.00;99.90;;;;;;5074728;28;20647;-64
2021/01/11 07:10:31;;;;;;;16.03;9.30;;;1.00;99.90;;;;;;5074748;28;20182;-64
2021/01/11 07:13:18;;;;;;;16.50;10.20;;;1.10;99.90;;;;;;5075185;28;20170;-64
2021/01/11 07:15:52;;;;;;;14.23;9.40;;;1.10;99.90;;;;;;5074658;28;20212;-63
2021/01/11 07:18:37;;;;;;;18.80;9.50;;;1.10;99.90;;;;;;5074696;28;20180;-64
2021/01/11 07:21:35;;;;;;;13.87;10.07;;;1.10;99.90;;;;;;5074423;28;20225;-64
2021/01/11 07:24:03;;;;;;;19.43;9.27;;;1.20;99.90;;;;;;5040912;28;20190;-63
2021/01/11 07:26:29;;;;;;;14.83;9.73;;;1.10;99.90;;;;;;5074586;28;20193;-64
2021/01/11 07:28:58;;;;;;;15.70;9.03;;;1.20;99.90;;;;;;5074258;28;20257;-63
2021/01/11 07:31:29;;;;;;;13.77;8.13;;;1.20;99.90;;;;;;5074573;28;20185;-63
2021/01/11 07:34:02;;;;;;;12.90;9.13;;;1.30;99.90;;;;;;5074493;28;20178;-63
2021/01/11 07:36:32;;;;;;;14.20;9.60;;;1.30;99.90;;;;;;5034475;28;20252;-64
2021/01/11 07:39:16;;;;;;;15.53;9.50;;;1.30;99.90;;;;;;5034579;28;20179;-64
2021/01/11 07:41:45;;;;;;;16.03;10.07;;;1.30;99.90;;;;;;5073052;28;20206;-64
2021/01/11 07:44:12;;;;;;;16.27;8.60;;;1.30;99.90;;;;;;5074143;28;20631;-64
2021/01/11 07:46:38;;;;;;;15.53;9.53;;;1.30;99.90;;;;;;5073964;28;20206;-64
2021/01/11 07:49:16;;;;;;;12.77;9.07;;;1.40;99.90;;;;;;5074262;28;20594;-62
2021/01/11 07:51:50;;;;;;;14.50;9.03;;;1.40;99.90;;;;;;5034351;28;20187;-64
2021/01/11 07:54:21;;;;;;;17.83;8.93;;;1.40;99.90;;;;;;5035290;28;20180;-64
2021/01/11 07:56:50;;;;;;;11.27;8.90;;;1.30;99.90;;;;;;5035518;28;20242;-64
2021/01/11 07:59:16;;;;;;;16.10;8.13;;;1.30;99.90;;;;;;5034170;28;20176;-64
2021/01/11 08:01:44;;;;;;;11.63;8.40;;;1.30;99.90;;;;;;5073633;28;20559;-64
2021/01/11 08:04:10;;;;;;;11.57;8.53;;;1.30;99.90;;;;;;5073748;28;20189;-64
2021/01/11 08:06:51;;;;;;;16.57;8.77;;;1.30;99.90;;;;;;5073872;28;20280;-64
2021/01/11 08:09:36;;;;;;;11.53;8.03;;;1.20;99.90;;;;;;5073139;28;20174;-65
2021/01/11 08:12:17;;;;;;;11.27;7.33;;;1.20;99.90;;;;;;5072058;28;20186;-65
2021/01/11 08:14:47;;;;;;;11.40;7.83;;;1.30;99.90;;;;;;5074155;28;20182;-63
2021/01/11 08:17:21;;;;;;;11.80;7.60;;;1.30;99.90;;;;;;5073892;28;20690;-64
2021/01/11 08:19:58;;;;;;;18.47;7.77;;;1.30;99.90;;;;;;5073725;28;20204;-64
2021/01/11 08:22:25;;;;;;;12.77;8.77;;;1.30;99.90;;;;;;5072055;28;20582;-63
2021/01/11 08:24:52;;;;;;;12.33;8.83;;;1.30;99.90;;;;;;5073606;28;20173;-64
2021/01/11 08:27:31;;;;;;;13.13;8.23;;;1.30;99.90;;;;;;5073514;28;20263;-64
2021/01/11 08:30:04;;;;;;;13.77;8.87;;;1.30;99.90;;;;;;5073718;28;20727;-64
2021/01/11 08:32:32;;;;;;;12.83;9.03;;;1.40;99.90;;;;;;5075261;28;20245;-65
2021/01/11 08:34:58;;;;;;;14.13;9.07;;;1.40;99.90;;;;;;5075321;28;20616;-65
2021/01/11 08:37:29;;;;;;;14.53;8.70;;;1.40;99.90;;;;;;5074274;28;20215;-64
2021/01/11 08:40:05;;;;;;;15.13;8.83;;;1.40;99.90;;;;;;5073575;28;20263;-64
2021/01/11 08:42:32;;;;;;;13.33;7.90;;;1.50;99.90;;;;;;5073183;28;20647;-64
2021/01/11 08:45:32;;;;;;;14.57;8.37;;;1.50;99.90;;;;;;5073108;28;20181;-65
2021/01/11 08:48:11;;;;;;;15.50;9.40;;;1.50;99.90;;;;;;5072934;28;20192;-62
2021/01/11 08:50:58;;;;;;;13.73;8.70;;;1.50;99.90;;;;;;5073261;28;20186;-63
2021/01/11 08:53:25;;;;;;;12.83;8.33;;;1.60;99.90;;;;;;5072910;28;20173;-64
2021/01/11 08:55:57;;;;;;;16.60;8.47;;;1.60;99.90;;;;;;5072939;28;20210;-64
2021/01/11 08:58:23;;;;;;;13.97;9.87;;;1.60;99.90;;;;;;5071347;28;20474;-64
2021/01/11 09:00:49;;;;;;;12.87;8.70;;;1.70;99.90;;;;;;5072824;28;20256;-64
2021/01/11 09:03:14;;;;;;;12.47;8.70;;;1.70;99.90;;;;;;5073020;28;20669;-64
2021/01/11 09:05:41;;;;;;;17.77;9.77;;;1.70;99.90;;;;;;5072807;28;20564;-64
2021/01/11 09:08:19;;;;;;;14.00;9.57;;;1.70;99.90;;;;;;5072485;28;20174;-64
2021/01/11 09:10:45;;;;;;;14.03;8.97;;;1.70;99.90;;;;;;5072649;28;20192;-64
2021/01/11 09:13:22;;;;;;;16.57;9.50;;;1.80;99.90;;;;;;5072870;28;20219;-64
2021/01/11 09:15:47;;;;;;;15.47;8.77;;;1.70;99.90;;;;;;5072381;28;20206;-64
2021/01/11 09:18:14;;;;;;;11.53;8.27;;;1.80;99.90;;;;;;5072520;28;20740;-64
2021/01/11 09:20:45;;;;;;;14.97;8.83;;;1.80;99.90;;;;;;5071093;28;20197;-62
2021/01/11 09:23:11;;;;;;;13.33;8.77;;;1.90;99.90;;;;;;5072694;28;20224;-63
2021/01/11 09:25:38;;;;;;;11.70;8.47;;;1.90;99.90;;;;;;5072189;28;20202;-64
2021/01/11 09:28:05;;;;;;;10.37;7.37;;;2.00;99.90;;;;;;5057487;28;20233;-64
2021/01/11 09:30:32;;;;;;;12.87;8.53;;;2.00;99.90;;;;;;5018808;28;20180;-64
2021/01/11 09:32:58;;;;;;;12.23;7.83;;;2.00;99.90;;;;;;5012869;28;20181;-63
2021/01/11 09:35:25;;;;;;;10.10;7.63;;;2.00;99.90;;;;;;5023655;28;20203;-64
2021/01/11 09:37:52;;;;;;;11.97;7.53;;;2.00;99.90;;;;;;5032404;28;20293;-64
2021/01/11 09:40:18;;;;;;;12.70;8.10;;;2.10;99.90;;;;;;5022097;28;20238;-64
2021/01/11 09:42:46;;;;;;;11.50;7.03;;;2.10;99.90;;;;;;5011289;28;20611;-62
2021/01/11 09:45:12;;;;;;;10.60;7.43;;;2.10;99.90;;;;;;5020903;28;20265;-62
2021/01/11 09:47:39;;;;;;;6.60;5.83;;;2.10;99.90;;;;;;5031813;28;20172;-64
2021/01/11 09:50:06;;;;;;;8.33;6.67;;;2.10;99.90;;;;;;5024829;28;20262;-64
2021/01/11 09:52:31;;;;;;;12.43;7.07;;;2.00;99.90;;;;;;5012478;28;20176;-64
2021/01/11 09:57:39;;;;;;;9.07;6.23;;;1.90;99.90;;;;;;4781302;23;20466;-64
2021/01/11 10:00:11;;;;;;;10.03;6.60;;;1.80;99.90;;;;;;5030496;28;20340;-64
2021/01/11 10:02:37;;;;;;;9.13;6.67;;;1.80;99.90;;;;;;5029028;28;20211;-64
2021/01/11 10:05:04;;;;;;;11.23;7.07;;;1.80;99.90;;;;;;5012115;28;20182;-64
2021/01/11 10:07:29;;;;;;;8.03;6.43;;;1.80;99.90;;;;;;4994619;28;20200;-64
2021/01/11 10:09:55;;;;;;;8.63;6.60;;;1.80;99.90;;;;;;5051531;23;20252;-63
2021/01/11 10:12:20;;;;;;;9.20;6.63;;;1.90;99.90;;;;;;5031728;28;20665;-63
2021/01/11 10:14:46;;;;;;;8.80;6.70;;;1.90;99.90;;;;;;5031063;28;20552;-65
2021/01/11 10:17:12;;;;;;;9.33;6.70;;;2.00;99.90;;;;;;5033218;28;20180;-67
2021/01/11 10:19:38;;;;;;;9.30;6.57;;;2.00;99.90;;;;;;5001417;28;20292;-65
2021/01/11 10:22:04;;;;;;;9.00;5.97;;;2.10;99.90;;;;;;4992893;28;20620;-66
2021/01/11 10:24:30;;;;;;;9.87;6.40;;;2.10;99.90;;;;;;4993754;28;20173;-66
2021/01/11 10:26:56;;;;;;;9.27;6.27;;;2.20;99.90;;;;;;4992379;28;20169;-66
2021/01/11 10:29:24;;;;;;;11.83;6.23;;;2.20;99.90;;;;;;5005261;28;20223;-65
2021/01/11 10:31:50;;;;;;;9.50;6.10;;;2.20;99.90;;;;;;5011872;28;20187;-66
2021/01/11 10:34:20;;;;;;;8.93;6.13;;;2.20;99.90;;;;;;4999945;28;20180;-66
2021/01/11 10:36:49;;;;;;;6.40;5.63;;;2.20;99.90;;;;;;4993260;28;20234;-66
2021/01/11 10:39:19;;;;;;;11.57;6.80;;;2.20;99.90;;;;;;5003116;28;20254;-67
2021/01/11 10:41:49;;;;;;;11.60;6.17;;;2.10;99.90;;;;;;5011479;28;20262;-66
2021/01/11 10:44:15;;;;;;;10.13;6.20;;;2.10;99.90;;;;;;5001226;28;20192;-64
2021/01/11 10:46:41;;;;;;;6.20;5.50;;;2.10;99.90;;;;;;5005625;28;20516;-65
2021/01/11 10:49:06;;;;;;;9.23;6.30;;;2.10;99.90;;;;;;4996648;28;20283;-65
2021/01/11 10:51:33;;;;;;;7.37;5.70;;;2.10;99.90;;;;;;4992004;28;20267;-64
2021/01/11 10:53:59;;;;;;;11.50;6.30;;;2.10;99.90;;;;;;4998716;28;20184;-64
2021/01/11 10:56:25;;;;;;;9.77;6.63;;;2.10;99.90;;;;;;5011336;28;20202;-67
2021/01/11 10:58:51;;;;;;;8.50;6.27;;;2.20;99.90;;;;;;5006755;28;20290;-65
2021/01/11 11:01:16;;;;;;;10.13;6.93;;;2.20;99.90;;;;;;4996338;28;20207;-66
2021/01/11 11:11:23;;;;;;;9.23;7.10;;;2.20;99.90;;;;;;5027974;28;20214;-64
2021/01/11 11:13:49;;;;;;;8.63;7.23;;;2.20;99.90;;;;;;5030928;28;20195;-64
2021/01/11 11:16:15;;;;;;;11.63;6.97;;;2.20;99.90;;;;;;5031046;28;20229;-64
2021/01/11 11:18:42;;;;;;;8.03;6.03;;;2.20;99.90;;;;;;5029355;28;20657;-63
2021/01/11 11:21:09;;;;;;;8.97;7.10;;;2.30;99.90;;;;;;5011730;28;20207;-63
2021/01/11 11:23:35;;;;;;;8.53;6.33;;;2.20;99.90;;;;;;5011924;28;20168;-65
2021/01/11 11:26:02;;;;;;;8.60;6.37;;;2.20;99.90;;;;;;5031068;28;20179;-64
2021/01/11 11:28:29;;;;;;;10.70;7.53;;;2.20;99.90;;;;;;5030561;28;20207;-64
2021/01/11 11:30:55;;;;;;;9.37;7.33;;;2.20;99.90;;;;;;5030750;28;20340;-63
2021/01/11 11:33:21;;;;;;;10.93;6.60;;;2.20;99.90;;;;;;5030979;28;20671;-63
2021/01/11 11:35:47;;;;;;;8.00;5.63;;;2.30;99.90;;;;;;5014475;28;20179;-63
2021/01/11 11:38:12;;;;;;;9.43;6.90;;;2.30;99.90;;;;;;5010676;28;20188;-63
2021/01/11 11:40:38;;;;;;;13.53;8.03;;;2.30;99.90;;;;;;5025755;28;20191;-63
2021/01/11 11:43:04;;;;;;;11.40;6.80;;;2.30;99.90;;;;;;5031101;28;20597;-63
2021/01/11 11:45:31;;;;;;;11.27;5.73;;;2.30;99.90;;;;;;5020746;28;20183;-63
2021/01/11 11:47:57;;;;;;;9.70;6.37;;;2.30;99.90;;;;;;5014810;28;20617;-63
2021/01/11 11:50:23;;;;;;;9.03;6.63;;;2.20;99.90;;;;;;5015764;28;20176;-63
2021/01/11 11:52:49;;;;;;;9.73;6.10;;;2.20;99.90;;;;;;5014807;28;20222;-63
2021/01/11 11:55:15;;;;;;;9.07;6.57;;;2.20;99.90;;;;;;5024440;28;20179;-63
2021/01/11 11:57:42;;;;;;;11.60;6.87;;;2.30;99.90;;;;;;5034182;28;20188;-62
2021/01/11 12:00:11;;;;;;;12.73;6.70;;;2.30;99.90;;;;;;5025408;28;20641;-63
2021/01/11 12:02:40;;;;;;;12.07;6.93;;;2.40;99.90;;;;;;5018100;28;20349;-62
2021/01/11 12:05:14;;;;;;;11.70;7.53;;;2.40;99.90;;;;;;5034204;28;20164;-63
2021/01/11 12:07:39;;;;;;;11.33;7.23;;;2.40;99.90;;;;;;5030124;28;20677;-62
2021/01/11 12:10:07;;;;;;;11.43;7.60;;;2.40;99.90;;;;;;5012908;28;20191;-63
2021/01/11 12:12:33;;;;;;;9.43;6.83;;;2.40;99.90;;;;;;5017057;28;20542;-63
2021/01/11 12:15:00;;;;;;;12.90;8.40;;;2.50;99.90;;;;;;5033342;28;20229;-61
2021/01/11 12:17:26;;;;;;;9.97;7.27;;;2.50;99.90;;;;;;5031867;28;20510;-62
2021/01/11 12:19:52;;;;;;;11.27;6.93;;;2.50;99.90;;;;;;5014221;28;20179;-63
2021/01/11 12:22:17;;;;;;;12.33;7.97;;;2.60;99.90;;;;;;5013922;28;20263;-63
2021/01/11 12:24:43;;;;;;;14.57;8.37;;;2.60;99.90;;;;;;5033656;28;20183;-62
2021/01/11 12:27:09;;;;;;;10.40;6.67;;;2.60;99.90;;;;;;5031783;28;20261;-63
2021/01/11 12:29:34;;;;;;;9.80;7.43;;;2.70;99.90;;;;;;5014211;28;20211;-62
2021/01/11 12:32:07;;;;;;;11.47;8.03;;;2.60;99.90;;;;;;5014213;28;20267;-63
2021/01/11 12:34:34;;;;;;;11.23;8.27;;;2.60;99.90;;;;;;5013947;28;20180;-62
2021/01/11 12:37:01;;;;;;;12.57;8.40;;;2.70;99.90;;;;;;5013845;28;20172;-61
2021/01/11 12:39:28;;;;;;;13.20;7.93;;;2.70;99.90;;;;;;5014167;28;20295;-63
2021/01/11 12:41:54;;;;;;;13.50;7.97;;;2.80;99.90;;;;;;5014381;28;20238;-63
2021/01/11 12:44:19;;;;;;;11.80;8.97;;;2.80;99.90;;;;;;5014658;28;20204;-62
2021/01/11 12:46:45;;;;;;;13.03;8.43;;;2.80;99.90;;;;;;5013898;28;20168;-63
2021/01/11 12:49:10;;;;;;;10.43;7.07;;;2.80;99.90;;;;;;5029190;28;20204;-63
2021/01/11 12:51:36;;;;;;;9.73;7.53;;;2.80;99.90;;;;;;5033670;28;20210;-63
2021/01/11 12:54:02;;;;;;;13.37;7.87;;;2.90;99.90;;;;;;5019041;28;20172;-64
2021/01/11 12:56:29;;;;;;;10.13;7.73;;;2.90;99.90;;;;;;5013283;28;20779;-63
2021/01/11 12:58:57;;;;;;;12.13;8.33;;;2.90;99.90;;;;;;5026086;28;20202;-64
2021/01/11 13:01:25;;;;;;;11.67;8.37;;;2.90;99.90;;;;;;5033157;28;20195;-63
2021/01/11 13:03:54;;;;;;;13.80;8.63;;;2.90;99.90;;;;;;5025081;28;20520;-63
2021/01/11 13:06:28;;;;;;;12.40;8.27;;;3.00;99.90;;;;;;5013171;28;20721;-63
2021/01/11 13:08:55;;;;;;;11.60;8.53;;;3.10;99.90;;;;;;5024386;28;20285;-63